sensor_id;sensor_type;location;lat;lon;timestamp;temperature;humidity
37310;DHT22;23195;47.744;7.358;2024-03-25T00:00:12;5.40;99.90
37310;DHT22;23195;47.744;7.358;2024-03-25T00:02:39;5.30;99.90
37310;DHT22;23195;47.744;7.358;2024-03-25T00:05:06;5.20;99.90
37310;DHT22;23195;47.744;7.358;2024-03-25T00:07:35;5.30;99.90
37310;DHT22;23195;47.744;7.358;2024-03-25T00:10:01;5.20;99.90
37310;DHT22;23195;47.744;7.358;2024-03-25T00:12:27;5.20;99.90
37310;DHT22;23195;47.744;7.358;2024-03-25T00:14:53;5.20;99.90
37310;DHT22;23195;47.744;7.358;2024-03-25T00:17:19;5.20;99.90
37310;DHT22;23195;47.744;7.358;2024-03-25T00:19:47;5.20;99.90
37310;DHT22;23195;47.744;7.358;2024-03-25T00:22:17;5.20;99.90
37310;DHT22;23195;47.744;7.358;2024-03-25T00:24:43;5.30;99.90
37310;DHT22;23195;47.744;7.358;2024-03-25T00:27:10;5.30;99.90
37310;DHT22;23195;47.744;7.358;2024-03-25T00:29:35;5.30;99.90
37310;DHT22;23195;47.744;7.358;2024-03-25T00:32:01;5.40;99.90
37310;DHT22;23195;47.744;7.358;2024-03-25T00:34:27;5.40;99.90
37310;DHT22;23195;47.744;7.358;2024-03-25T00:36:52;5.50;99.90
37310;DHT22;23195;47.744;7.358;2024-03-25T00:39:19;6.20;99.90
37310;DHT22;23195;47.744;7.358;2024-03-25T00:41:45;5.60;99.90
37310;DHT22;23195;47.744;7.358;2024-03-25T00:44:11;5.70;99.90
37310;DHT22;23195;47.744;7.358;2024-03-25T00:46:36;5.70;99.90
37310;DHT22;23195;47.744;7.358;2024-03-25T00:49:02;5.70;99.90
37310;DHT22;23195;47.744;7.358;2024-03-25T00:51:28;5.70;99.90
37310;DHT22;23195;47.744;7.358;2024-03-25T00:53:54;5.70;99.90
37310;DHT22;23195;47.744;7.358;2024-03-25T00:56:20;5.80;99.90
37310;DHT22;23195;47.744;7.358;2024-03-25T00:58:46;5.70;99.90
37310;DHT22;23195;47.744;7.358;2024-03-25T01:01:12;5.70;99.90
37310;DHT22;23195;47.744;7.358;2024-03-25T01:03:38;5.70;99.90
37310;DHT22;23195;47.744;7.358;2024-03-25T01:06:04;5.70;99.90
37310;DHT22;23195;47.744;7.358;2024-03-25T01:08:29;5.60;99.90
37310;DHT22;23195;47.744;7.358;2024-03-25T01:10:55;5.50;99.90
37310;DHT22;23195;47.744;7.358;2024-03-25T01:13:21;5.40;99.90
37310;DHT22;23195;47.744;7.358;2024-03-25T01:15:47;4.90;99.90
37310;DHT22;23195;47.744;7.358;2024-03-25T01:18:13;5.40;99.90
37310;DHT22;23195;47.744;7.358;2024-03-25T01:20:39;5.30;99.90
37310;DHT22;23195;47.744;7.358;2024-03-25T01:23:04;5.30;99.90
37310;DHT22;23195;47.744;7.358;2024-03-25T01:25:30;5.20;99.90
37310;DHT22;23195;47.744;7.358;2024-03-25T01:27:56;5.20;99.90
37310;DHT22;23195;47.744;7.358;2024-03-25T01:30:22;5.10;99.90
37310;DHT22;23195;47.744;7.358;2024-03-25T01:32:48;5.10;99.90
37310;DHT22;23195;47.744;7.358;2024-03-25T01:35:14;5.00;99.90
37310;DHT22;23195;47.744;7.358;2024-03-25T01:37:43;5.00;99.90
37310;DHT22;23195;47.744;7.358;2024-03-25T01:40:09;4.90;99.90
37310;DHT22;23195;47.744;7.358;2024-03-25T01:42:36;4.90;99.90
37310;DHT22;23195;47.744;7.358;2024-03-25T01:45:03;5.00;99.90
37310;DHT22;23195;47.744;7.358;2024-03-25T01:47:32;4.90;99.90
37310;DHT22;23195;47.744;7.358;2024-03-25T01:49:59;4.80;99.90
37310;DHT22;23195;47.744;7.358;2024-03-25T01:52:26;4.80;99.90
37310;DHT22;23195;47.744;7.358;2024-03-25T01:54:53;4.80;99.90
37310;DHT22;23195;47.744;7.358;2024-03-25T01:57:20;4.80;99.90
37310;DHT22;23195;47.744;7.358;2024-03-25T01:59:46;4.60;99.90
37310;DHT22;23195;47.744;7.358;2024-03-25T02:02:12;4.60;99.90
37310;DHT22;23195;47.744;7.358;2024-03-25T02:04:40;4.60;99.90
37310;DHT22;23195;47.744;7.358;2024-03-25T02:07:08;4.50;99.90
37310;DHT22;23195;47.744;7.358;2024-03-25T02:09:35;4.50;99.90
37310;DHT22;23195;47.744;7.358;2024-03-25T02:12:02;4.40;99.90
37310;DHT22;23195;47.744;7.358;2024-03-25T02:14:28;4.50;99.90
37310;DHT22;23195;47.744;7.358;2024-03-25T02:16:53;4.40;99.90
37310;DHT22;23195;47.744;7.358;2024-03-25T02:19:21;4.40;99.90
37310;DHT22;23195;47.744;7.358;2024-03-25T02:21:48;4.40;99.90
37310;DHT22;23195;47.744;7.358;2024-03-25T02:24:15;4.30;99.90
37310;DHT22;23195;47.744;7.358;2024-03-25T02:26:47;4.30;99.90
37310;DHT22;23195;47.744;7.358;2024-03-25T02:29:13;4.50;99.90
37310;DHT22;23195;47.744;7.358;2024-03-25T02:31:39;4.20;99.90
37310;DHT22;23195;47.744;7.358;2024-03-25T02:34:05;4.20;99.90
37310;DHT22;23195;47.744;7.358;2024-03-25T02:36:31;4.10;99.90
37310;DHT22;23195;47.744;7.358;2024-03-25T02:38:58;4.20;99.90
37310;DHT22;23195;47.744;7.358;2024-03-25T02:41:24;4.20;99.90
37310;DHT22;23195;47.744;7.358;2024-03-25T02:43:50;4.10;99.90
37310;DHT22;23195;47.744;7.358;2024-03-25T02:46:16;3.30;99.90
37310;DHT22;23195;47.744;7.358;2024-03-25T02:48:42;4.00;99.90
37310;DHT22;23195;47.744;7.358;2024-03-25T02:51:07;4.00;99.90
37310;DHT22;23195;47.744;7.358;2024-03-25T02:53:33;3.90;99.90
37310;DHT22;23195;47.744;7.358;2024-03-25T02:55:59;3.30;99.90
37310;DHT22;23195;47.744;7.358;2024-03-25T02:58:25;3.90;99.90
37310;DHT22;23195;47.744;7.358;2024-03-25T03:00:50;3.90;99.90
37310;DHT22;23195;47.744;7.358;2024-03-25T03:03:19;5.20;99.90
37310;DHT22;23195;47.744;7.358;2024-03-25T03:05:45;3.80;99.90
37310;DHT22;23195;47.744;7.358;2024-03-25T03:08:11;3.80;99.90
37310;DHT22;23195;47.744;7.358;2024-03-25T03:10:37;3.80;99.90
37310;DHT22;23195;47.744;7.358;2024-03-25T03:13:03;3.80;99.90
37310;DHT22;23195;47.744;7.358;2024-03-25T03:15:28;3.80;99.90
37310;DHT22;23195;47.744;7.358;2024-03-25T03:17:54;3.00;99.90
37310;DHT22;23195;47.744;7.358;2024-03-25T03:20:20;3.70;99.90
37310;DHT22;23195;47.744;7.358;2024-03-25T03:22:46;3.70;99.90
37310;DHT22;23195;47.744;7.358;2024-03-25T03:25:12;3.70;99.90
37310;DHT22;23195;47.744;7.358;2024-03-25T03:27:37;3.60;99.90
37310;DHT22;23195;47.744;7.358;2024-03-25T03:30:03;3.50;99.90
37310;DHT22;23195;47.744;7.358;2024-03-25T03:32:29;3.40;99.90
37310;DHT22;23195;47.744;7.358;2024-03-25T03:34:55;3.40;99.90
37310;DHT22;23195;47.744;7.358;2024-03-25T03:37:21;3.50;99.90
37310;DHT22;23195;47.744;7.358;2024-03-25T03:39:47;3.40;99.90
37310;DHT22;23195;47.744;7.358;2024-03-25T03:42:13;3.40;99.90
37310;DHT22;23195;47.744;7.358;2024-03-25T03:44:38;3.40;99.90
37310;DHT22;23195;47.744;7.358;2024-03-25T03:47:04;3.40;99.90
37310;DHT22;23195;47.744;7.358;2024-03-25T03:49:30;3.30;99.90
37310;DHT22;23195;47.744;7.358;2024-03-25T03:51:56;3.30;99.90
37310;DHT22;23195;47.744;7.358;2024-03-25T03:54:22;3.20;99.90
37310;DHT22;23195;47.744;7.358;2024-03-25T03:56:48;3.10;99.90
37310;DHT22;23195;47.744;7.358;2024-03-25T03:59:14;3.10;99.90
37310;DHT22;23195;47.744;7.358;2024-03-25T04:01:40;3.10;99.90
37310;DHT22;23195;47.744;7.358;2024-03-25T04:04:05;3.10;99.90
37310;DHT22;23195;47.744;7.358;2024-03-25T04:06:31;3.10;99.90
37310;DHT22;23195;47.744;7.358;2024-03-25T04:08:57;3.10;99.90
37310;DHT22;23195;47.744;7.358;2024-03-25T04:11:23;3.10;99.90
37310;DHT22;23195;47.744;7.358;2024-03-25T04:13:48;3.20;99.90
37310;DHT22;23195;47.744;7.358;2024-03-25T04:16:14;3.20;99.90
37310;DHT22;23195;47.744;7.358;2024-03-25T04:18:40;2.60;99.90
37310;DHT22;23195;47.744;7.358;2024-03-25T04:21:11;3.30;99.90
37310;DHT22;23195;47.744;7.358;2024-03-25T04:23:37;3.30;99.90
37310;DHT22;23195;47.744;7.358;2024-03-25T04:26:03;3.30;99.90
37310;DHT22;23195;47.744;7.358;2024-03-25T04:28:31;3.20;99.90
37310;DHT22;23195;47.744;7.358;2024-03-25T04:30:57;3.30;99.90
37310;DHT22;23195;47.744;7.358;2024-03-25T04:33:23;3.40;99.90
37310;DHT22;23195;47.744;7.358;2024-03-25T04:35:48;3.40;99.90
37310;DHT22;23195;47.744;7.358;2024-03-25T04:38:17;3.40;99.90
37310;DHT22;23195;47.744;7.358;2024-03-25T04:40:43;3.50;99.90
37310;DHT22;23195;47.744;7.358;2024-03-25T04:43:12;3.50;99.90
37310;DHT22;23195;47.744;7.358;2024-03-25T04:45:38;3.60;99.90
37310;DHT22;23195;47.744;7.358;2024-03-25T04:48:04;3.60;99.90
37310;DHT22;23195;47.744;7.358;2024-03-25T04:50:30;3.60;99.90
37310;DHT22;23195;47.744;7.358;2024-03-25T04:52:56;3.60;99.90
37310;DHT22;23195;47.744;7.358;2024-03-25T04:55:22;3.60;99.90
37310;DHT22;23195;47.744;7.358;2024-03-25T04:57:48;3.30;99.90
37310;DHT22;23195;47.744;7.358;2024-03-25T05:00:14;3.60;99.90
37310;DHT22;23195;47.744;7.358;2024-03-25T05:02:40;3.60;99.90
37310;DHT22;23195;47.744;7.358;2024-03-25T05:05:06;3.60;99.90
37310;DHT22;23195;47.744;7.358;2024-03-25T05:07:33;3.60;99.90
37310;DHT22;23195;47.744;7.358;2024-03-25T05:09:59;3.60;99.90
37310;DHT22;23195;47.744;7.358;2024-03-25T05:12:25;3.60;99.90
37310;DHT22;23195;47.744;7.358;2024-03-25T05:14:58;3.60;99.90
37310;DHT22;23195;47.744;7.358;2024-03-25T05:17:24;3.70;99.90
37310;DHT22;23195;47.744;7.358;2024-03-25T05:19:50;3.60;99.90
37310;DHT22;23195;47.744;7.358;2024-03-25T05:22:16;3.70;99.90
37310;DHT22;23195;47.744;7.358;2024-03-25T05:24:42;3.60;99.90
37310;DHT22;23195;47.744;7.358;2024-03-25T05:27:08;3.60;99.90
37310;DHT22;23195;47.744;7.358;2024-03-25T05:29:33;3.60;99.90
37310;DHT22;23195;47.744;7.358;2024-03-25T05:32:01;3.60;99.90
37310;DHT22;23195;47.744;7.358;2024-03-25T05:34:27;3.60;99.90
37310;DHT22;23195;47.744;7.358;2024-03-25T05:36:54;3.50;99.90
37310;DHT22;23195;47.744;7.358;2024-03-25T05:39:20;2.60;99.90
37310;DHT22;23195;47.744;7.358;2024-03-25T05:41:47;3.50;99.90
37310;DHT22;23195;47.744;7.358;2024-03-25T05:44:12;3.50;99.90
37310;DHT22;23195;47.744;7.358;2024-03-25T05:46:39;3.60;99.90
37310;DHT22;23195;47.744;7.358;2024-03-25T05:49:05;3.60;99.90
37310;DHT22;23195;47.744;7.358;2024-03-25T05:51:32;2.80;99.90
37310;DHT22;23195;47.744;7.358;2024-03-25T05:54:01;3.70;99.90
37310;DHT22;23195;47.744;7.358;2024-03-25T05:56:27;3.00;99.90
37310;DHT22;23195;47.744;7.358;2024-03-25T05:58:59;3.60;99.90
37310;DHT22;23195;47.744;7.358;2024-03-25T06:01:25;3.70;99.90
37310;DHT22;23195;47.744;7.358;2024-03-25T06:03:51;3.70;99.90
37310;DHT22;23195;47.744;7.358;2024-03-25T06:06:17;3.70;99.90
37310;DHT22;23195;47.744;7.358;2024-03-25T06:08:44;2.80;99.90
37310;DHT22;23195;47.744;7.358;2024-03-25T06:11:10;3.70;99.90
37310;DHT22;23195;47.744;7.358;2024-03-25T06:13:35;3.80;99.90
37310;DHT22;23195;47.744;7.358;2024-03-25T06:16:01;3.90;99.90
37310;DHT22;23195;47.744;7.358;2024-03-25T06:18:27;4.60;99.90
37310;DHT22;23195;47.744;7.358;2024-03-25T06:20:53;4.00;99.90
37310;DHT22;23195;47.744;7.358;2024-03-25T06:23:27;4.20;99.90
37310;DHT22;23195;47.744;7.358;2024-03-25T06:25:54;4.20;99.90
37310;DHT22;23195;47.744;7.358;2024-03-25T06:28:21;4.20;99.90
37310;DHT22;23195;47.744;7.358;2024-03-25T06:30:48;4.30;99.90
37310;DHT22;23195;47.744;7.358;2024-03-25T06:33:32;4.40;99.90
37310;DHT22;23195;47.744;7.358;2024-03-25T06:36:17;4.50;99.90
37310;DHT22;23195;47.744;7.358;2024-03-25T06:38:43;4.60;99.90
37310;DHT22;23195;47.744;7.358;2024-03-25T06:41:09;4.60;99.90
37310;DHT22;23195;47.744;7.358;2024-03-25T06:43:36;4.70;99.90
37310;DHT22;23195;47.744;7.358;2024-03-25T06:46:04;4.90;99.90
37310;DHT22;23195;47.744;7.358;2024-03-25T06:48:30;5.00;99.90
37310;DHT22;23195;47.744;7.358;2024-03-25T06:50:57;5.10;99.90
37310;DHT22;23195;47.744;7.358;2024-03-25T06:53:23;5.20;99.90
37310;DHT22;23195;47.744;7.358;2024-03-25T06:55:56;5.20;99.90
37310;DHT22;23195;47.744;7.358;2024-03-25T06:58:23;5.30;99.90
37310;DHT22;23195;47.744;7.358;2024-03-25T07:00:49;5.30;99.90
37310;DHT22;23195;47.744;7.358;2024-03-25T07:03:16;5.50;99.90
37310;DHT22;23195;47.744;7.358;2024-03-25T07:05:45;5.60;99.90
37310;DHT22;23195;47.744;7.358;2024-03-25T07:08:11;5.70;99.90
37310;DHT22;23195;47.744;7.358;2024-03-25T07:10:37;5.80;99.90
37310;DHT22;23195;47.744;7.358;2024-03-25T07:13:03;5.90;99.90
37310;DHT22;23195;47.744;7.358;2024-03-25T07:15:29;6.00;99.90
37310;DHT22;23195;47.744;7.358;2024-03-25T07:17:55;6.20;99.90
37310;DHT22;23195;47.744;7.358;2024-03-25T07:20:20;6.60;99.90
37310;DHT22;23195;47.744;7.358;2024-03-25T07:22:48;7.60;99.90
37310;DHT22;23195;47.744;7.358;2024-03-25T07:25:14;9.00;99.90
37310;DHT22;23195;47.744;7.358;2024-03-25T07:27:40;10.60;99.90
37310;DHT22;23195;47.744;7.358;2024-03-25T07:30:07;11.80;99.90
37310;DHT22;23195;47.744;7.358;2024-03-25T07:32:36;12.50;99.90
37310;DHT22;23195;47.744;7.358;2024-03-25T07:35:03;13.50;99.90
37310;DHT22;23195;47.744;7.358;2024-03-25T07:37:30;14.20;99.30
37310;DHT22;23195;47.744;7.358;2024-03-25T07:39:56;14.40;97.40
37310;DHT22;23195;47.744;7.358;2024-03-25T07:42:22;14.90;96.90
37310;DHT22;23195;47.744;7.358;2024-03-25T07:44:48;14.90;95.00
37310;DHT22;23195;47.744;7.358;2024-03-25T07:47:14;14.80;95.20
37310;DHT22;23195;47.744;7.358;2024-03-25T07:49:39;15.50;93.40
37310;DHT22;23195;47.744;7.358;2024-03-25T07:52:06;15.80;92.50
37310;DHT22;23195;47.744;7.358;2024-03-25T07:54:32;15.30;92.70
37310;DHT22;23195;47.744;7.358;2024-03-25T07:56:58;15.00;93.50
37310;DHT22;23195;47.744;7.358;2024-03-25T07:59:24;15.00;92.50
37310;DHT22;23195;47.744;7.358;2024-03-25T08:01:50;15.10;92.70
37310;DHT22;23195;47.744;7.358;2024-03-25T08:04:16;15.70;92.10
37310;DHT22;23195;47.744;7.358;2024-03-25T08:06:41;16.10;91.60
37310;DHT22;23195;47.744;7.358;2024-03-25T08:09:07;16.70;89.70
37310;DHT22;23195;47.744;7.358;2024-03-25T08:11:35;16.60;89.50
37310;DHT22;23195;47.744;7.358;2024-03-25T08:14:00;16.20;90.20
37310;DHT22;23195;47.744;7.358;2024-03-25T08:16:26;17.00;88.10
37310;DHT22;23195;47.744;7.358;2024-03-25T08:18:52;15.40;87.50
37310;DHT22;23195;47.744;7.358;2024-03-25T08:21:18;15.10;90.00
37310;DHT22;23195;47.744;7.358;2024-03-25T08:23:50;15.00;90.70
37310;DHT22;23195;47.744;7.358;2024-03-25T08:26:17;15.30;90.40
37310;DHT22;23195;47.744;7.358;2024-03-25T08:28:43;15.30;89.40
37310;DHT22;23195;47.744;7.358;2024-03-25T08:31:08;15.30;89.00
37310;DHT22;23195;47.744;7.358;2024-03-25T08:33:34;15.40;88.80
37310;DHT22;23195;47.744;7.358;2024-03-25T08:36:00;15.50;87.60
37310;DHT22;23195;47.744;7.358;2024-03-25T08:38:26;15.30;87.50
37310;DHT22;23195;47.744;7.358;2024-03-25T08:40:52;14.90;88.00
37310;DHT22;23195;47.744;7.358;2024-03-25T08:43:18;15.10;89.20
37310;DHT22;23195;47.744;7.358;2024-03-25T08:45:47;14.80;88.70
37310;DHT22;23195;47.744;7.358;2024-03-25T08:48:12;14.70;89.60
37310;DHT22;23195;47.744;7.358;2024-03-25T08:50:38;14.70;89.30
37310;DHT22;23195;47.744;7.358;2024-03-25T08:53:04;14.60;88.60
37310;DHT22;23195;47.744;7.358;2024-03-25T08:55:30;14.50;88.80
37310;DHT22;23195;47.744;7.358;2024-03-25T08:57:57;14.30;89.60
37310;DHT22;23195;47.744;7.358;2024-03-25T09:00:26;13.60;90.30
37310;DHT22;23195;47.744;7.358;2024-03-25T09:02:53;13.20;91.40
37310;DHT22;23195;47.744;7.358;2024-03-25T09:05:19;12.80;91.90
37310;DHT22;23195;47.744;7.358;2024-03-25T09:07:45;13.30;91.70
37310;DHT22;23195;47.744;7.358;2024-03-25T09:10:17;13.60;91.40
37310;DHT22;23195;47.744;7.358;2024-03-25T09:13:01;13.70;90.90
37310;DHT22;23195;47.744;7.358;2024-03-25T09:15:29;13.70;91.00
37310;DHT22;23195;47.744;7.358;2024-03-25T09:17:54;13.20;91.40
37310;DHT22;23195;47.744;7.358;2024-03-25T09:20:20;13.20;91.30
37310;DHT22;23195;47.744;7.358;2024-03-25T09:22:47;12.80;92.00
37310;DHT22;23195;47.744;7.358;2024-03-25T09:25:16;12.50;93.20
37310;DHT22;23195;47.744;7.358;2024-03-25T09:27:49;12.20;92.60
37310;DHT22;23195;47.744;7.358;2024-03-25T09:30:15;11.70;92.10
37310;DHT22;23195;47.744;7.358;2024-03-25T09:32:42;11.40;92.40
37310;DHT22;23195;47.744;7.358;2024-03-25T09:35:09;11.50;93.10
37310;DHT22;23195;47.744;7.358;2024-03-25T09:37:35;11.40;92.70
37310;DHT22;23195;47.744;7.358;2024-03-25T09:40:01;11.60;92.70
37310;DHT22;23195;47.744;7.358;2024-03-25T09:42:33;11.70;92.40
37310;DHT22;23195;47.744;7.358;2024-03-25T09:44:59;11.80;92.70
37310;DHT22;23195;47.744;7.358;2024-03-25T09:47:25;11.80;91.80
37310;DHT22;23195;47.744;7.358;2024-03-25T09:49:54;11.90;92.50
37310;DHT22;23195;47.744;7.358;2024-03-25T09:52:20;11.80;92.60
37310;DHT22;23195;47.744;7.358;2024-03-25T09:54:46;11.70;92.00
37310;DHT22;23195;47.744;7.358;2024-03-25T09:57:12;11.20;92.50
37310;DHT22;23195;47.744;7.358;2024-03-25T09:59:39;11.20;92.90
37310;DHT22;23195;47.744;7.358;2024-03-25T10:02:05;11.20;93.30
37310;DHT22;23195;47.744;7.358;2024-03-25T10:04:32;11.40;93.40
37310;DHT22;23195;47.744;7.358;2024-03-25T10:06:58;11.50;92.00
37310;DHT22;23195;47.744;7.358;2024-03-25T10:09:24;11.70;91.80
37310;DHT22;23195;47.744;7.358;2024-03-25T10:11:51;11.60;92.50
37310;DHT22;23195;47.744;7.358;2024-03-25T10:14:18;11.70;92.40
37310;DHT22;23195;47.744;7.358;2024-03-25T10:16:48;11.80;91.80
37310;DHT22;23195;47.744;7.358;2024-03-25T10:19:15;11.80;91.10
37310;DHT22;23195;47.744;7.358;2024-03-25T10:21:40;11.70;91.60
37310;DHT22;23195;47.744;7.358;2024-03-25T10:24:06;11.70;92.20
37310;DHT22;23195;47.744;7.358;2024-03-25T10:26:36;11.80;92.10
37310;DHT22;23195;47.744;7.358;2024-03-25T10:29:10;11.50;91.90
37310;DHT22;23195;47.744;7.358;2024-03-25T10:31:47;11.50;92.60
37310;DHT22;23195;47.744;7.358;2024-03-25T10:34:13;11.40;93.30
37310;DHT22;23195;47.744;7.358;2024-03-25T10:36:42;11.20;92.80
37310;DHT22;23195;47.744;7.358;2024-03-25T10:39:12;11.10;92.90
37310;DHT22;23195;47.744;7.358;2024-03-25T10:41:39;11.00;93.10
37310;DHT22;23195;47.744;7.358;2024-03-25T10:44:09;11.00;92.50
37310;DHT22;23195;47.744;7.358;2024-03-25T10:46:35;10.80;92.80
37310;DHT22;23195;47.744;7.358;2024-03-25T10:49:07;10.90;92.80
37310;DHT22;23195;47.744;7.358;2024-03-25T10:51:36;10.80;93.50
37310;DHT22;23195;47.744;7.358;2024-03-25T10:54:03;10.90;93.70
37310;DHT22;23195;47.744;7.358;2024-03-25T10:56:29;10.90;92.70
37310;DHT22;23195;47.744;7.358;2024-03-25T10:58:56;11.10;93.00
37310;DHT22;23195;47.744;7.358;2024-03-25T11:01:22;11.30;93.30
37310;DHT22;23195;47.744;7.358;2024-03-25T11:03:49;11.40;92.70
37310;DHT22;23195;47.744;7.358;2024-03-25T11:06:15;11.60;92.60
37310;DHT22;23195;47.744;7.358;2024-03-25T11:08:42;11.70;92.70
37310;DHT22;23195;47.744;7.358;2024-03-25T11:11:13;11.50;91.00
37310;DHT22;23195;47.744;7.358;2024-03-25T11:13:39;11.70;91.40
37310;DHT22;23195;47.744;7.358;2024-03-25T11:16:06;11.80;91.10
37310;DHT22;23195;47.744;7.358;2024-03-25T11:18:36;11.80;90.90
37310;DHT22;23195;47.744;7.358;2024-03-25T11:21:04;11.60;90.80
37310;DHT22;23195;47.744;7.358;2024-03-25T11:23:43;11.70;90.90
37310;DHT22;23195;47.744;7.358;2024-03-25T11:26:24;11.70;91.10
37310;DHT22;23195;47.744;7.358;2024-03-25T11:28:51;11.60;91.20
37310;DHT22;23195;47.744;7.358;2024-03-25T11:31:20;11.60;91.40
37310;DHT22;23195;47.744;7.358;2024-03-25T11:33:50;11.80;91.60
37310;DHT22;23195;47.744;7.358;2024-03-25T11:36:18;11.90;91.80
37310;DHT22;23195;47.744;7.358;2024-03-25T11:38:46;12.10;90.60
37310;DHT22;23195;47.744;7.358;2024-03-25T11:41:22;12.10;90.00
37310;DHT22;23195;47.744;7.358;2024-03-25T11:43:48;12.00;89.80
37310;DHT22;23195;47.744;7.358;2024-03-25T11:46:17;11.90;88.90
37310;DHT22;23195;47.744;7.358;2024-03-25T11:48:44;11.90;90.40
37310;DHT22;23195;47.744;7.358;2024-03-25T11:51:16;12.00;90.80
37310;DHT22;23195;47.744;7.358;2024-03-25T11:53:42;12.10;90.90
37310;DHT22;23195;47.744;7.358;2024-03-25T11:56:08;12.20;90.60
37310;DHT22;23195;47.744;7.358;2024-03-25T11:58:38;12.30;90.70
37310;DHT22;23195;47.744;7.358;2024-03-25T12:01:04;12.50;89.70
37310;DHT22;23195;47.744;7.358;2024-03-25T12:03:29;12.50;88.70
37310;DHT22;23195;47.744;7.358;2024-03-25T12:05:56;12.60;88.80
37310;DHT22;23195;47.744;7.358;2024-03-25T12:08:23;12.60;87.00
37310;DHT22;23195;47.744;7.358;2024-03-25T12:10:51;12.40;87.50
37310;DHT22;23195;47.744;7.358;2024-03-25T12:13:38;12.40;87.80
37310;DHT22;23195;47.744;7.358;2024-03-25T12:16:08;12.40;85.40
37310;DHT22;23195;47.744;7.358;2024-03-25T12:18:36;12.50;88.50
37310;DHT22;23195;47.744;7.358;2024-03-25T12:21:04;12.30;84.20
37310;DHT22;23195;47.744;7.358;2024-03-25T12:23:34;11.70;84.20
37310;DHT22;23195;47.744;7.358;2024-03-25T12:26:00;12.10;82.70
37310;DHT22;23195;47.744;7.358;2024-03-25T12:28:26;12.60;83.50
37310;DHT22;23195;47.744;7.358;2024-03-25T12:30:54;12.80;84.10
37310;DHT22;23195;47.744;7.358;2024-03-25T12:33:23;12.90;80.30
37310;DHT22;23195;47.744;7.358;2024-03-25T12:35:50;12.90;78.90
37310;DHT22;23195;47.744;7.358;2024-03-25T12:38:27;12.60;76.80
37310;DHT22;23195;47.744;7.358;2024-03-25T12:41:02;12.60;77.10
37310;DHT22;23195;47.744;7.358;2024-03-25T12:43:31;12.20;77.30
37310;DHT22;23195;47.744;7.358;2024-03-25T12:45:58;12.80;77.80
37310;DHT22;23195;47.744;7.358;2024-03-25T12:48:24;12.80;77.80
37310;DHT22;23195;47.744;7.358;2024-03-25T12:50:51;12.70;77.00
37310;DHT22;23195;47.744;7.358;2024-03-25T12:53:18;12.40;78.10
37310;DHT22;23195;47.744;7.358;2024-03-25T12:55:44;12.70;77.70
37310;DHT22;23195;47.744;7.358;2024-03-25T12:58:10;12.80;79.10
37310;DHT22;23195;47.744;7.358;2024-03-25T13:00:36;12.80;78.30
37310;DHT22;23195;47.744;7.358;2024-03-25T13:03:07;12.80;78.50
37310;DHT22;23195;47.744;7.358;2024-03-25T13:05:34;12.90;77.40
37310;DHT22;23195;47.744;7.358;2024-03-25T13:08:00;12.90;76.60
37310;DHT22;23195;47.744;7.358;2024-03-25T13:10:32;13.10;77.60
37310;DHT22;23195;47.744;7.358;2024-03-25T13:12:59;13.00;77.10
37310;DHT22;23195;47.744;7.358;2024-03-25T13:15:26;12.90;77.20
37310;DHT22;23195;47.744;7.358;2024-03-25T13:17:52;12.90;78.90
37310;DHT22;23195;47.744;7.358;2024-03-25T13:20:18;12.70;80.40
37310;DHT22;23195;47.744;7.358;2024-03-25T13:22:44;13.00;80.00
37310;DHT22;23195;47.744;7.358;2024-03-25T13:25:11;13.10;78.90
37310;DHT22;23195;47.744;7.358;2024-03-25T13:27:37;13.10;77.50
37310;DHT22;23195;47.744;7.358;2024-03-25T13:30:04;13.10;77.70
37310;DHT22;23195;47.744;7.358;2024-03-25T13:32:30;13.00;77.90
37310;DHT22;23195;47.744;7.358;2024-03-25T13:34:56;13.10;78.60
37310;DHT22;23195;47.744;7.358;2024-03-25T13:37:22;13.30;78.80
37310;DHT22;23195;47.744;7.358;2024-03-25T13:39:49;13.40;76.80
37310;DHT22;23195;47.744;7.358;2024-03-25T13:42:16;13.30;75.40
37310;DHT22;23195;47.744;7.358;2024-03-25T13:44:42;13.40;76.40
37310;DHT22;23195;47.744;7.358;2024-03-25T13:47:07;13.30;75.50
37310;DHT22;23195;47.744;7.358;2024-03-25T13:49:36;13.20;76.30
37310;DHT22;23195;47.744;7.358;2024-03-25T13:52:03;13.10;78.20
37310;DHT22;23195;47.744;7.358;2024-03-25T13:54:30;13.20;77.40
37310;DHT22;23195;47.744;7.358;2024-03-25T13:56:58;13.20;77.00
37310;DHT22;23195;47.744;7.358;2024-03-25T13:59:24;13.20;77.80
37310;DHT22;23195;47.744;7.358;2024-03-25T14:01:50;13.40;77.40
37310;DHT22;23195;47.744;7.358;2024-03-25T14:04:17;13.40;78.20
37310;DHT22;23195;47.744;7.358;2024-03-25T14:06:43;13.40;77.10
37310;DHT22;23195;47.744;7.358;2024-03-25T14:09:32;13.40;77.30
37310;DHT22;23195;47.744;7.358;2024-03-25T14:11:57;13.40;78.70
37310;DHT22;23195;47.744;7.358;2024-03-25T14:14:22;13.50;76.00
37310;DHT22;23195;47.744;7.358;2024-03-25T14:16:48;13.40;75.30
37310;DHT22;23195;47.744;7.358;2024-03-25T14:19:14;13.40;75.90
37310;DHT22;23195;47.744;7.358;2024-03-25T14:21:43;13.40;76.80
37310;DHT22;23195;47.744;7.358;2024-03-25T14:24:09;13.50;77.20
37310;DHT22;23195;47.744;7.358;2024-03-25T14:26:34;13.60;77.00
37310;DHT22;23195;47.744;7.358;2024-03-25T14:29:00;13.60;76.50
37310;DHT22;23195;47.744;7.358;2024-03-25T14:31:27;13.50;76.50
37310;DHT22;23195;47.744;7.358;2024-03-25T14:33:56;13.60;76.00
37310;DHT22;23195;47.744;7.358;2024-03-25T14:36:22;13.70;77.10
37310;DHT22;23195;47.744;7.358;2024-03-25T14:38:48;13.80;75.70
37310;DHT22;23195;47.744;7.358;2024-03-25T14:41:19;13.80;75.30
37310;DHT22;23195;47.744;7.358;2024-03-25T14:43:45;13.80;75.10
37310;DHT22;23195;47.744;7.358;2024-03-25T14:46:10;13.60;74.30
37310;DHT22;23195;47.744;7.358;2024-03-25T14:48:36;13.60;75.80
37310;DHT22;23195;47.744;7.358;2024-03-25T14:51:05;13.50;74.30
37310;DHT22;23195;47.744;7.358;2024-03-25T14:53:31;13.50;74.20
37310;DHT22;23195;47.744;7.358;2024-03-25T14:55:56;13.60;74.70
37310;DHT22;23195;47.744;7.358;2024-03-25T14:58:22;13.60;73.70
37310;DHT22;23195;47.744;7.358;2024-03-25T15:00:48;13.60;72.80
37310;DHT22;23195;47.744;7.358;2024-03-25T15:03:14;13.60;72.90
37310;DHT22;23195;47.744;7.358;2024-03-25T15:05:40;13.60;73.00
37310;DHT22;23195;47.744;7.358;2024-03-25T15:08:06;13.70;73.80
37310;DHT22;23195;47.744;7.358;2024-03-25T15:10:35;13.60;73.90
37310;DHT22;23195;47.744;7.358;2024-03-25T15:13:00;13.60;74.50
37310;DHT22;23195;47.744;7.358;2024-03-25T15:15:27;13.60;73.70
37310;DHT22;23195;47.744;7.358;2024-03-25T15:17:53;13.60;74.20
37310;DHT22;23195;47.744;7.358;2024-03-25T15:20:19;13.60;75.00
37310;DHT22;23195;47.744;7.358;2024-03-25T15:22:45;13.50;74.00
37310;DHT22;23195;47.744;7.358;2024-03-25T15:25:11;13.50;74.00
37310;DHT22;23195;47.744;7.358;2024-03-25T15:27:39;13.40;73.00
37310;DHT22;23195;47.744;7.358;2024-03-25T15:30:05;13.30;74.20
37310;DHT22;23195;47.744;7.358;2024-03-25T15:32:31;13.30;74.60
37310;DHT22;23195;47.744;7.358;2024-03-25T15:34:58;13.40;74.80